createdAt,value
2022-09-10T00:01:36.492Z,18.10
2022-09-10T00:04:07.415Z,18.23
2022-09-10T00:06:34.206Z,18.23
2022-09-10T00:09:01.179Z,18.10
2022-09-10T00:11:29.298Z,18.15
2022-09-10T00:13:56.038Z,18.06
2022-09-10T00:16:23.121Z,18.11
2022-09-10T00:18:49.812Z,18.25
2022-09-10T00:21:19.444Z,18.61
2022-09-10T00:23:46.422Z,18.62
2022-09-10T00:26:22.125Z,18.94
2022-09-10T00:28:50.602Z,18.94
2022-09-10T00:31:18.114Z,19.19
2022-09-10T00:33:45.567Z,19.42
2022-09-10T00:36:33.622Z,19.41
2022-09-10T00:39:04.605Z,19.44
2022-09-10T00:41:33.091Z,19.42
2022-09-10T00:44:27.573Z,19.49
2022-09-10T00:46:55.857Z,19.86
2022-09-10T00:49:33.712Z,20.06
2022-09-10T00:52:01.938Z,19.87
2022-09-10T00:54:33.685Z,19.89
2022-09-10T00:57:08.141Z,19.94
2022-09-10T00:59:36.054Z,19.88
2022-09-10T01:02:02.886Z,19.66
2022-09-10T01:04:29.805Z,19.53
2022-09-10T01:07:01.645Z,19.43
2022-09-10T01:09:29.535Z,19.33
2022-09-10T01:12:22.370Z,19.17
2022-09-10T01:15:02.172Z,19.10
2022-09-10T01:17:47.384Z,19.26
2022-09-10T01:20:51.589Z,18.95
2022-09-10T01:23:46.186Z,18.79
2022-09-10T01:26:18.856Z,19.17
2022-09-10T01:29:02.216Z,19.14
2022-09-10T01:31:28.804Z,19.11
2022-09-10T01:34:04.970Z,19.06
2022-09-10T01:36:38.452Z,19.17
2022-09-10T01:39:05.023Z,19.16
2022-09-10T01:41:31.583Z,19.40
2022-09-10T01:43:58.434Z,19.35
2022-09-10T01:46:45.159Z,19.80
2022-09-10T01:49:36.377Z,19.94
2022-09-10T01:52:19.621Z,19.88
2022-09-10T01:55:13.298Z,20.10
2022-09-10T01:57:49.401Z,19.80
2022-09-10T02:00:19.524Z,19.99
2022-09-10T02:02:58.979Z,19.72
2022-09-10T02:05:30.392Z,19.61
2022-09-10T02:08:03.121Z,19.65
2022-09-10T02:10:29.860Z,19.61
2022-09-10T02:12:56.823Z,19.18
2022-09-10T02:15:27.024Z,19.35
2022-09-10T02:17:54.708Z,19.26
2022-09-10T02:20:21.922Z,19.34
2022-09-10T02:22:55.417Z,19.55
2022-09-10T02:25:22.403Z,19.61
2022-09-10T02:27:49.141Z,19.34
2022-09-10T02:30:15.837Z,19.14
2022-09-10T02:32:42.451Z,19.27
2022-09-10T02:35:09.356Z,19.28
2022-09-10T02:37:36.079Z,19.50
2022-09-10T02:40:03.607Z,19.25
2022-09-10T02:42:30.354Z,19.13
2022-09-10T02:44:57.072Z,19.18
2022-09-10T02:47:23.786Z,19.25
2022-09-10T02:49:50.294Z,19.46
2022-09-10T02:52:16.895Z,19.33
2022-09-10T02:54:44.154Z,19.34
2022-09-10T02:57:10.958Z,19.24
2022-09-10T02:59:38.193Z,19.25
2022-09-10T03:02:05.144Z,19.03
2022-09-10T03:04:32.026Z,18.81
2022-09-10T03:06:58.793Z,18.81
2022-09-10T03:09:25.934Z,18.93
2022-09-10T03:11:52.735Z,19.24
2022-09-10T03:14:19.582Z,19.16
2022-09-10T03:16:49.566Z,19.51
2022-09-10T03:19:16.394Z,19.12
2022-09-10T03:21:43.151Z,19.03
2022-09-10T03:24:09.693Z,19.27
2022-09-10T03:26:36.737Z,19.54
2022-09-10T03:29:03.323Z,19.26
2022-09-10T03:31:29.909Z,19.16
2022-09-10T03:33:56.757Z,19.34
2022-09-10T03:36:23.611Z,19.24
2022-09-10T03:38:50.114Z,19.16
2022-09-10T03:41:17.421Z,18.80
2022-09-10T03:43:43.974Z,18.65
2022-09-10T03:46:10.584Z,18.52
2022-09-10T03:48:37.410Z,18.31
2022-09-10T03:51:04.210Z,18.30
2022-09-10T03:53:30.872Z,18.89
2022-09-10T03:55:57.647Z,18.64
2022-09-10T03:58:26.600Z,18.99
2022-09-10T04:00:53.271Z,18.80
2022-09-10T04:03:19.979Z,18.51
2022-09-10T04:05:47.185Z,18.64
2022-09-10T04:08:17.373Z,19.08
2022-09-10T04:10:46.616Z,19.14
2022-09-10T04:13:13.505Z,18.89
2022-09-10T04:15:40.877Z,19.03
2022-09-10T04:18:07.947Z,18.99
2022-09-10T04:20:34.842Z,18.99
2022-09-10T04:23:01.411Z,18.96
2022-09-10T04:25:28.247Z,19.08
2022-09-10T04:27:55.351Z,19.42
2022-09-10T04:30:22.995Z,19.15
2022-09-10T04:32:50.142Z,18.85
2022-09-10T04:35:17.170Z,19.04
2022-09-10T04:37:44.017Z,19.18
2022-09-10T04:40:11.072Z,18.90
2022-09-10T04:42:38.165Z,18.66
2022-09-10T04:45:06.497Z,18.41
2022-09-10T04:47:33.845Z,18.33
2022-09-10T04:50:00.698Z,18.32
2022-09-10T04:52:27.538Z,18.12
2022-09-10T04:54:54.118Z,17.82
2022-09-10T04:57:21.066Z,17.90
2022-09-10T04:59:47.843Z,17.58
2022-09-10T05:02:14.523Z,17.62
2022-09-10T05:04:44.253Z,17.88
2022-09-10T05:07:11.375Z,17.99
2022-09-10T05:09:38.863Z,17.72
2022-09-10T05:12:05.923Z,17.70
2022-09-10T05:14:32.971Z,17.81
2022-09-10T05:16:59.992Z,17.90
2022-09-10T05:19:27.266Z,18.04
2022-09-10T05:21:54.383Z,17.80
2022-09-10T05:24:21.537Z,18.17
2022-09-10T05:26:48.545Z,18.27
2022-09-10T05:29:15.625Z,18.37
2022-09-10T05:31:42.758Z,18.44
2022-09-10T05:34:09.310Z,18.75
2022-09-10T05:36:35.821Z,18.89
2022-09-10T05:39:03.065Z,18.96
2022-09-10T05:41:29.650Z,18.90
2022-09-10T05:43:56.448Z,18.62
2022-09-10T05:46:23.423Z,18.60
2022-09-10T05:48:50.823Z,18.75
2022-09-10T05:51:17.426Z,18.33
2022-09-10T05:53:43.958Z,18.71
2022-09-10T05:56:10.585Z,18.40
2022-09-10T05:58:37.275Z,18.55
2022-09-10T06:01:03.856Z,18.95
2022-09-10T06:03:30.334Z,18.71
2022-09-10T06:05:56.820Z,18.99
2022-09-10T06:08:23.476Z,18.99
2022-09-10T06:10:57.670Z,19.19
2022-09-10T06:13:24.735Z,18.70
2022-09-10T06:15:51.250Z,18.85
2022-09-10T06:18:17.883Z,19.16
2022-09-10T06:20:44.589Z,18.92
2022-09-10T06:23:11.067Z,19.05
2022-09-10T06:25:37.637Z,18.55
2022-09-10T06:28:04.151Z,18.66
2022-09-10T06:30:30.651Z,18.98
2022-09-10T06:32:57.373Z,19.04
2022-09-10T06:35:23.977Z,19.30
2022-09-10T06:37:50.527Z,19.06
2022-09-10T06:40:17.060Z,18.72
2022-09-10T06:42:43.661Z,19.03
2022-09-10T06:45:10.466Z,18.97
2022-09-10T06:48:32.442Z,19.00
2022-09-10T06:50:23.714Z,18.96
2022-09-10T06:52:50.229Z,19.23
2022-09-10T06:55:16.763Z,19.35
2022-09-10T06:57:43.298Z,19.43
2022-09-10T07:00:10.420Z,19.28
2022-09-10T07:02:36.910Z,19.33
2022-09-10T07:05:03.763Z,19.31
2022-09-10T07:07:30.279Z,19.63
2022-09-10T07:09:56.837Z,19.50
2022-09-10T07:12:23.443Z,19.60
2022-09-10T07:14:49.994Z,19.34
2022-09-10T07:17:16.615Z,19.27
2022-09-10T07:19:43.276Z,19.32
2022-09-10T07:22:09.861Z,19.23
2022-09-10T07:24:36.384Z,19.18
2022-09-10T07:27:03.019Z,19.41
2022-09-10T07:29:29.574Z,19.28
2022-09-10T07:31:56.229Z,19.29
2022-09-10T07:34:23.328Z,19.44
2022-09-10T07:36:49.904Z,19.54
2022-09-10T07:39:16.640Z,19.56
2022-09-10T07:41:43.238Z,19.62
2022-09-10T07:44:09.866Z,19.83
2022-09-10T07:46:36.455Z,19.76
2022-09-10T07:49:02.983Z,19.97
2022-09-10T07:51:30.663Z,20.09
2022-09-10T07:53:59.236Z,20.05
2022-09-10T07:56:26.349Z,20.08
2022-09-10T07:58:54.013Z,20.14
2022-09-10T08:01:21.010Z,20.15
2022-09-10T08:03:47.768Z,20.03
2022-09-10T08:06:15.937Z,19.99
2022-09-10T08:08:43.183Z,19.94
2022-09-10T08:11:18.751Z,19.87
2022-09-10T08:13:47.953Z,19.95
2022-09-10T08:16:23.166Z,19.99
2022-09-10T08:18:50.586Z,19.97
2022-09-10T08:21:19.153Z,20.22
2022-09-10T08:23:50.346Z,20.39
2022-09-10T08:26:17.029Z,20.40
2022-09-10T08:28:43.704Z,20.46
2022-09-10T08:31:14.427Z,20.43
2022-09-10T08:33:41.059Z,20.17
2022-09-10T08:36:11.107Z,20.24
2022-09-10T08:38:40.094Z,20.48
2022-09-10T08:41:21.231Z,20.43
2022-09-10T08:44:15.134Z,20.39
2022-09-10T08:46:53.166Z,20.41
2022-09-10T08:49:45.618Z,20.31
2022-09-10T08:52:52.079Z,20.32
2022-09-10T08:55:21.645Z,20.27
2022-09-10T08:58:10.727Z,20.18
2022-09-10T09:00:41.774Z,20.37
2022-09-10T09:03:22.713Z,20.11
2022-09-10T09:05:58.070Z,20.22
2022-09-10T09:08:33.719Z,20.00
2022-09-10T09:11:22.698Z,20.11
2022-09-10T09:14:07.624Z,20.15
2022-09-10T09:16:58.841Z,20.17
2022-09-10T09:19:32.633Z,20.38
2022-09-10T09:22:20.104Z,20.31
2022-09-10T09:24:56.737Z,20.42
2022-09-10T09:27:29.271Z,20.56
2022-09-10T09:30:06.353Z,20.50
2022-09-10T09:32:42.122Z,20.68
2022-09-10T09:35:28.116Z,20.81
2022-09-10T09:38:09.838Z,20.89
2022-09-10T09:41:11.603Z,21.09
2022-09-10T09:43:57.498Z,21.01
2022-09-10T09:46:24.734Z,21.05
2022-09-10T09:48:58.415Z,20.98
2022-09-10T09:51:28.637Z,21.09
2022-09-10T09:54:25.768Z,21.12
2022-09-10T09:56:51.145Z,21.15
2022-09-10T09:59:36.278Z,21.30
2022-09-10T10:02:14.443Z,21.58
2022-09-10T10:04:54.907Z,21.58
2022-09-10T10:08:01.116Z,21.53
2022-09-10T10:10:34.965Z,21.45
2022-09-10T10:13:05.407Z,21.20
2022-09-10T10:15:41.895Z,21.12
2022-09-10T10:18:30.674Z,21.01
2022-09-10T10:21:17.223Z,21.01
2022-09-10T10:23:44.480Z,21.11
2022-09-10T10:26:20.274Z,21.23
2022-09-10T10:29:07.369Z,21.45
2022-09-10T10:31:43.872Z,21.29
2022-09-10T10:34:51.930Z,21.55
2022-09-10T10:37:46.635Z,21.71
2022-09-10T10:40:29.412Z,21.60
2022-09-10T10:42:59.003Z,21.63
2022-09-10T10:45:36.063Z,21.61
2022-09-10T10:48:18.227Z,21.70
2022-09-10T10:50:53.121Z,21.79
2022-09-10T10:53:53.460Z,21.64
2022-09-10T10:56:29.751Z,22.27
2022-09-10T10:59:26.545Z,22.23
2022-09-10T11:02:01.153Z,21.95
2022-09-10T11:04:48.294Z,21.82
2022-09-10T11:07:20.631Z,21.94
2022-09-10T11:10:11.953Z,22.05
2022-09-10T11:13:12.653Z,22.08
2022-09-10T11:15:51.243Z,21.84
2022-09-10T11:18:37.865Z,21.82
2022-09-10T11:21:29.124Z,22.10
2022-09-10T11:24:16.366Z,22.19
2022-09-10T11:26:47.914Z,22.18
2022-09-10T11:29:36.029Z,22.38
2022-09-10T11:32:07.731Z,22.57
2022-09-10T11:34:45.310Z,22.61
2022-09-10T11:37:42.499Z,22.58
2022-09-10T11:40:19.992Z,22.78
2022-09-10T11:42:54.175Z,23.07
2022-09-10T11:45:41.293Z,22.95
2022-09-10T11:48:42.068Z,23.07
2022-09-10T11:51:32.971Z,22.62
2022-09-10T11:54:03.279Z,22.48
2022-09-10T11:56:35.114Z,22.67
2022-09-10T11:59:30.924Z,22.54
2022-09-10T12:02:25.389Z,22.62
2022-09-10T12:05:42.873Z,22.45
2022-09-10T12:08:47.554Z,22.44
2022-09-10T12:11:48.224Z,22.09
2022-09-10T12:14:19.946Z,22.21
2022-09-10T12:16:54.860Z,22.19
2022-09-10T12:19:30.181Z,22.04
2022-09-10T12:22:06.361Z,22.26
2022-09-10T12:24:39.013Z,22.21
2022-09-10T12:27:07.461Z,22.21
2022-09-10T12:29:40.967Z,22.16
2022-09-10T12:32:19.257Z,22.50
2022-09-10T12:34:47.824Z,22.46
2022-09-10T12:37:21.143Z,22.06
2022-09-10T12:39:48.401Z,21.90
2022-09-10T12:42:29.630Z,21.74
2022-09-10T12:44:56.408Z,21.77
2022-09-10T12:47:43.174Z,21.40
2022-09-10T12:50:32.183Z,21.54
2022-09-10T12:53:11.477Z,21.93
2022-09-10T12:56:04.997Z,21.73
2022-09-10T12:58:58.256Z,21.83
2022-09-10T13:01:44.802Z,21.59
2022-09-10T13:04:23.649Z,22.07
2022-09-10T13:06:54.650Z,22.30
2022-09-10T13:09:26.447Z,22.32
2022-09-10T13:11:58.517Z,22.44
2022-09-10T13:14:33.590Z,22.56
2022-09-10T13:17:00.266Z,22.93
2022-09-10T13:19:26.748Z,22.85
2022-09-10T13:21:55.385Z,23.16
2022-09-10T13:24:34.225Z,22.85
2022-09-10T13:27:12.926Z,23.14
2022-09-10T13:29:55.706Z,23.05
2022-09-10T13:32:33.014Z,23.20
2022-09-10T13:35:32.090Z,23.38
2022-09-10T13:38:49.611Z,23.42
2022-09-10T13:41:35.105Z,23.81
2022-09-10T13:44:28.394Z,23.59
2022-09-10T13:46:58.602Z,23.66
2022-09-10T13:49:54.023Z,24.00
2022-09-10T13:52:37.387Z,23.94
2022-09-10T13:55:07.229Z,24.08
2022-09-10T13:57:39.846Z,24.50
2022-09-10T14:00:12.540Z,23.95
2022-09-10T14:02:53.843Z,23.51
2022-09-10T14:05:39.675Z,23.38
2022-09-10T14:08:12.304Z,23.47
2022-09-10T14:10:52.492Z,23.61
2022-09-10T14:13:30.061Z,23.51
2022-09-10T14:15:59.978Z,23.22
2022-09-10T14:18:37.711Z,23.57
2022-09-10T14:21:05.257Z,23.57
2022-09-10T14:23:32.379Z,23.87
2022-09-10T14:26:31.515Z,23.72
2022-09-10T14:29:24.323Z,23.89
2022-09-10T14:31:50.960Z,23.39
2022-09-10T14:34:35.512Z,23.73
2022-09-10T14:37:33.461Z,23.84
2022-09-10T14:40:18.939Z,23.84
2022-09-10T14:42:47.841Z,23.91
2022-09-10T14:45:40.117Z,23.49
2022-09-10T14:48:28.196Z,23.61
2022-09-10T14:51:09.464Z,24.01
2022-09-10T14:53:35.981Z,23.76
2022-09-10T14:56:04.684Z,23.53
2022-09-10T14:58:31.169Z,23.75
2022-09-10T15:00:58.075Z,23.74
2022-09-10T15:03:27.252Z,24.18
2022-09-10T15:05:53.788Z,24.12
2022-09-10T15:08:20.361Z,24.06
2022-09-10T15:10:49.528Z,24.35
2022-09-10T15:13:17.262Z,24.52
2022-09-10T15:15:43.837Z,24.23
2022-09-10T15:18:13.201Z,24.53
2022-09-10T15:20:39.865Z,24.03
2022-09-10T15:23:06.319Z,24.17
2022-09-10T15:25:49.518Z,24.09
2022-09-10T15:28:16.099Z,24.47
2022-09-10T15:30:42.675Z,24.37
2022-09-10T15:33:13.104Z,24.57
2022-09-10T15:35:39.564Z,24.65
2022-09-10T15:38:06.026Z,24.61
2022-09-10T15:40:32.476Z,24.33
2022-09-10T15:42:58.947Z,24.57
2022-09-10T15:45:25.464Z,24.62
2022-09-10T15:47:51.915Z,24.79
2022-09-10T15:50:18.394Z,24.35
2022-09-10T15:52:44.933Z,24.72
2022-09-10T15:55:11.976Z,24.85
2022-09-10T15:57:38.520Z,25.04
2022-09-10T16:00:06.229Z,24.80
2022-09-10T16:02:34.006Z,24.98
2022-09-10T16:05:00.550Z,24.98
2022-09-10T16:07:27.218Z,24.86
2022-09-10T16:09:53.928Z,24.41
2022-09-10T16:12:20.459Z,23.87
2022-09-10T16:14:47.039Z,23.83
2022-09-10T16:17:13.807Z,23.55
2022-09-10T16:19:40.277Z,23.91
2022-09-10T16:22:06.735Z,23.60
2022-09-10T16:24:33.301Z,23.22
2022-09-10T16:27:00.017Z,22.76
2022-09-10T16:29:26.894Z,23.33
2022-09-10T16:31:53.376Z,22.83
2022-09-10T16:34:20.788Z,23.19
2022-09-10T16:36:48.742Z,22.79
2022-09-10T16:39:16.071Z,22.43
2022-09-10T16:41:45.316Z,22.50
2022-09-10T16:44:13.939Z,22.24
2022-09-10T16:46:41.231Z,21.97
2022-09-10T16:49:10.453Z,22.29
2022-09-10T16:51:36.929Z,22.28
2022-09-10T16:54:06.573Z,22.23
2022-09-10T16:56:42.634Z,22.23
2022-09-10T16:59:15.711Z,22.27
2022-09-10T17:01:44.001Z,22.56
2022-09-10T17:04:19.765Z,22.40
2022-09-10T17:06:47.990Z,22.47
2022-09-10T17:09:15.190Z,22.62
2022-09-10T17:11:41.676Z,22.51
2022-09-10T17:14:08.117Z,22.74
2022-09-10T17:16:37.233Z,23.03
2022-09-10T17:19:10.039Z,22.82
2022-09-10T17:21:39.086Z,22.65
2022-09-10T17:24:08.483Z,22.48
2022-09-10T17:26:36.176Z,22.19
2022-09-10T17:29:06.029Z,22.62
2022-09-10T17:31:34.024Z,22.31
2022-09-10T17:34:01.382Z,22.09
2022-09-10T17:36:28.242Z,22.42
2022-09-10T17:38:55.240Z,22.68
2022-09-10T17:41:23.782Z,22.96
2022-09-10T17:43:50.293Z,23.08
2022-09-10T17:46:18.505Z,23.22
2022-09-10T17:48:45.538Z,23.10
2022-09-10T17:51:15.218Z,23.26
2022-09-10T17:53:42.225Z,22.92
2022-09-10T17:56:15.141Z,22.47
2022-09-10T17:58:41.855Z,22.76
2022-09-10T18:01:13.751Z,22.68
2022-09-10T18:03:41.207Z,22.80
2022-09-10T18:06:10.327Z,22.40
2022-09-10T18:11:11.586Z,22.30
2022-09-10T18:13:38.095Z,21.92
2022-09-10T18:16:05.995Z,21.56
2022-09-10T18:18:33.311Z,21.85
2022-09-10T18:21:16.953Z,21.46
2022-09-10T18:23:43.513Z,21.67
2022-09-10T18:26:16.054Z,21.35
2022-09-10T18:28:51.133Z,21.07
2022-09-10T18:31:17.627Z,21.20
2022-09-10T18:33:44.148Z,21.33
2022-09-10T18:36:17.149Z,21.64
2022-09-10T18:38:44.709Z,21.84
2022-09-10T18:41:16.831Z,21.73
2022-09-10T18:43:43.435Z,21.95
2022-09-10T18:46:09.943Z,22.05
2022-09-10T18:48:36.500Z,22.45
2022-09-10T18:51:11.132Z,22.51
2022-09-10T18:53:39.105Z,22.63
2022-09-10T18:56:11.505Z,22.79
2022-09-10T18:58:38.769Z,22.92
2022-09-10T19:01:12.540Z,23.04
2022-09-10T19:03:42.279Z,22.78
2022-09-10T19:06:12.985Z,22.84
2022-09-10T19:08:45.374Z,22.91
2022-09-10T19:11:11.821Z,22.59
2022-09-10T19:13:38.344Z,22.86
2022-09-10T19:16:05.219Z,22.90
2022-09-10T19:18:31.866Z,22.58
2022-09-10T19:21:03.081Z,22.36
2022-09-10T19:23:29.684Z,22.55
2022-09-10T19:25:56.796Z,22.70
2022-09-10T19:28:24.207Z,22.63
2022-09-10T19:30:51.281Z,22.66
2022-09-10T19:33:17.960Z,22.68
2022-09-10T19:35:45.658Z,22.62
2022-09-10T19:38:34.221Z,22.73
2022-09-10T19:41:11.417Z,22.14
2022-09-10T19:43:40.163Z,22.26
2022-09-10T19:46:09.347Z,22.47
2022-09-10T19:48:36.957Z,22.46
2022-09-10T19:51:04.751Z,22.47
2022-09-10T19:53:34.314Z,22.29
2022-09-10T19:56:09.960Z,22.48
2022-09-10T19:58:37.911Z,22.56
2022-09-10T20:01:13.148Z,22.54
2022-09-10T20:03:42.163Z,22.63
2022-09-10T20:06:08.885Z,22.44
2022-09-10T20:08:35.399Z,22.57
2022-09-10T20:11:06.733Z,22.70
2022-09-10T20:13:34.540Z,22.69
2022-09-10T20:16:06.542Z,22.72
2022-09-10T20:18:35.682Z,22.77
2022-09-10T20:21:18.244Z,22.34
2022-09-10T20:23:47.630Z,21.75
2022-09-10T20:26:18.019Z,21.59
2022-09-10T20:28:45.138Z,21.62
2022-09-10T20:31:13.012Z,21.30
2022-09-10T20:33:42.438Z,20.74
2022-09-10T20:36:13.573Z,20.45
2022-09-10T20:38:40.450Z,20.36
2022-09-10T20:41:07.752Z,19.99
2022-09-10T20:43:34.445Z,20.41
2022-09-10T20:46:01.584Z,20.22
2022-09-10T20:48:28.120Z,20.59
2022-09-10T20:50:59.715Z,21.03
2022-09-10T20:53:27.194Z,21.37
2022-09-10T20:56:02.359Z,21.59
2022-09-10T20:58:28.846Z,21.71
2022-09-10T21:00:55.287Z,21.31
2022-09-10T21:03:21.725Z,21.22
2022-09-10T21:05:49.093Z,21.19
2022-09-10T21:08:15.549Z,20.85
2022-09-10T21:10:42.134Z,20.91
2022-09-10T21:13:08.650Z,21.26
2022-09-10T21:15:35.248Z,21.55
2022-09-10T21:18:01.713Z,21.49
2022-09-10T21:20:28.159Z,21.43
2022-09-10T21:22:54.609Z,21.71
2022-09-10T21:25:21.047Z,21.84
2022-09-10T21:27:47.494Z,22.00
2022-09-10T21:30:13.992Z,22.00
2022-09-10T21:32:40.468Z,22.14
2022-09-10T21:35:07.187Z,22.15
2022-09-10T21:37:33.646Z,22.10
2022-09-10T21:40:00.275Z,21.93
2022-09-10T21:42:26.935Z,22.13
2022-09-10T21:44:53.389Z,22.11
2022-09-10T21:47:19.848Z,21.93
2022-09-10T21:49:46.299Z,22.00
2022-09-10T21:52:12.836Z,22.00
2022-09-10T21:54:39.268Z,21.70
2022-09-10T21:57:05.940Z,21.55
2022-09-10T21:59:32.383Z,21.18
2022-09-10T22:01:58.900Z,20.73
2022-09-10T22:04:25.485Z,20.38
2022-09-10T22:06:52.709Z,20.50
2022-09-10T22:09:19.164Z,20.15
2022-09-10T22:11:47.981Z,20.15
2022-09-10T22:14:17.060Z,19.75
2022-09-10T22:16:44.674Z,19.69
2022-09-10T22:19:17.598Z,19.41
2022-09-10T22:21:44.628Z,19.32
2022-09-10T22:24:13.461Z,19.32
2022-09-10T22:26:42.911Z,19.32
2022-09-10T22:29:09.706Z,19.40
2022-09-10T22:31:37.037Z,19.16
2022-09-10T22:34:10.774Z,19.17
2022-09-10T22:36:39.753Z,19.06
2022-09-10T22:39:10.360Z,19.27
2022-09-10T22:41:36.920Z,18.99
2022-09-10T22:44:04.585Z,19.04
2022-09-10T22:46:32.147Z,19.62
2022-09-10T22:48:59.449Z,20.01
2022-09-10T22:51:33.195Z,20.07
2022-09-10T22:54:00.030Z,19.64
2022-09-10T22:56:27.670Z,19.35
2022-09-10T22:58:56.901Z,19.20
2022-09-10T23:01:27.696Z,19.32
2022-09-10T23:03:59.824Z,19.36
2022-09-10T23:06:28.588Z,19.46
2022-09-10T23:09:01.500Z,19.79
2022-09-10T23:11:30.180Z,19.36
2022-09-10T23:13:58.986Z,19.83
2022-09-10T23:16:32.273Z,19.95
2022-09-10T23:19:01.464Z,20.01
2022-09-10T23:21:30.001Z,20.20
2022-09-10T23:23:59.379Z,19.76
2022-09-10T23:26:26.899Z,19.03
2022-09-10T23:28:53.822Z,19.05
2022-09-10T23:31:26.617Z,18.96
2022-09-10T23:33:56.483Z,18.67
2022-09-10T23:36:23.005Z,18.99
2022-09-10T23:38:49.700Z,18.97
2022-09-10T23:41:17.162Z,18.78
2022-09-10T23:43:44.844Z,19.32
2022-09-10T23:46:12.814Z,19.43
2022-09-10T23:48:39.972Z,19.43
2022-09-10T23:51:06.608Z,18.91
2022-09-10T23:53:33.264Z,18.55
2022-09-10T23:55:59.982Z,18.23
2022-09-10T23:58:26.545Z,18.13
